Nearby METAR Reports

 

KMSY - New Orleans,Louisiana, USA
Distance from station: E 11.7mi, 18.8km
Updated: Wed, 20-Nov-2019 5:53am CST
Shallow fog, Few clouds
Shallow fog, Few clouds
 Wind from calm
Wind: Calm
Temperature: 48°F , 9°C
Dew Point: 43°F , 6°C
Humidity: 82%
Barometer: 30.13 inHg , 1020.3 hPa
Summary: Shallow Fog
Clouds: Few Clouds
Visibility: 7 miles , 11 km
Cloud details: Few Clouds 200 ft
Few Clouds 25000 ft
2019/11/20 11:53 KMSY 201153Z 00000KT 7SM MIFG FEW002 FEW250 09/06 A3013 RMK AO2 SLP206 T00890061 10111 20083 53011
KAPS - Reserve,Louisiana, USA
Distance from station: W 8.4mi, 13.5km
Updated: Wed, 20-Nov-2019 6:35am CST
Fog, Overcast
Fog, Overcast
 Wind from calm
Wind: Calm
Temperature: 45°F , 7°C
Dew Point: 41°F , 5°C
Humidity: 87%
Barometer: 30.16 inHg , 1021.3 hPa
Summary: Fog
Clouds: Overcast
Visibility: 1/2 mile , 0.8 km
Cloud details: Overcast 500 ft
2019/11/20 12:35 KAPS 201235Z AUTO 00000KT 1/2SM FG VV005 07/05 A3016 RMK AO2 T00730050
 
KHDC - Hammond,Louisiana, USA
Distance from station: N 31.5mi, 50.6km
Updated: Wed, 20-Nov-2019 6:35am CST
Clear
Clear
 Wind from calm
Wind: Calm
Temperature: 39°F , 4°C
Dew Point: 37°F , 3°C
Humidity: 93%
Barometer: 30.16 inHg , 1021.3 hPa
Clouds: Clear
Visibility: 10 miles , 16 km
2019/11/20 12:35 KHDC 201235Z AUTO 00000KT 10SM CLR 04/03 A3016 RMK AO2 PWINO
KHUM - Houma,Louisiana, USA
Distance from station: SW 36.54mi, 58.8km
Updated: Wed, 20-Nov-2019 6:50am CST
Clear
Clear
 Wind from calm
Wind: Calm
Temperature: 45°F , 7°C
Dew Point: 43°F , 6°C
Humidity: 93%
Barometer: 30.14 inHg , 1020.7 hPa
Clouds: Clear
Visibility: 7 miles , 11 km
2019/11/20 12:50 KHUM 201250Z 00000KT 7SM CLR 07/06 A3014